Time;durP1;ratioP1;P1;durP2;ratioP2;P2;SDS_P1;SDS_P2;PMS_P1;PMS_P2;Temp;Humidity;BMP_temperature;BMP_pressure;BME280_temperature;BME280_humidity;BME280_pressure;Samples;Min_cycle;Max_cycle;Signal;HPM_P1;HPM_P2
2023/06/26 00:02:15;;;;;;;11.50;10.33;;;17.70;99.90;;;;;;4937479;28;20435;-86
2023/06/26 00:05:05;;;;;;;11.87;10.87;;;17.40;99.90;;;;;;4937749;28;20397;-85
2023/06/26 00:07:36;;;;;;;12.10;10.90;;;17.40;99.90;;;;;;4928581;29;20617;-85
2023/06/26 00:10:15;;;;;;;16.90;11.47;;;17.30;99.90;;;;;;4908151;29;20418;-87
2023/06/26 00:12:49;;;;;;;11.40;10.20;;;17.40;99.90;;;;;;4919497;29;20968;-87
2023/06/26 00:15:26;;;;;;;13.67;11.70;;;17.50;99.90;;;;;;4906751;29;20430;-86
2023/06/26 00:17:55;;;;;;;12.53;11.33;;;17.40;99.90;;;;;;4923870;29;20449;-86
2023/06/26 00:20:28;;;;;;;11.80;10.63;;;17.20;99.90;;;;;;4923342;29;20493;-85
2023/06/26 00:22:58;;;;;;;12.90;11.53;;;17.50;99.90;;;;;;4888914;29;20450;-86
2023/06/26 00:25:27;;;;;;;11.37;10.33;;;17.30;99.90;;;;;;4908132;29;20794;-86
2023/06/26 00:27:58;;;;;;;13.33;12.03;;;17.30;99.90;;;;;;4926150;29;20473;-86
2023/06/26 00:30:27;;;;;;;13.93;11.60;;;16.80;99.90;;;;;;4927100;29;20495;-86
2023/06/26 00:32:57;;;;;;;11.73;10.53;;;17.60;99.90;;;;;;4933858;29;20443;-85
2023/06/26 00:35:25;;;;;;;13.13;11.53;;;17.30;99.90;;;;;;4931945;29;20426;-85
2023/06/26 00:37:54;;;;;;;14.80;13.50;;;17.30;99.90;;;;;;4907941;29;20435;-84
2023/06/26 00:40:23;;;;;;;17.70;12.30;;;17.40;99.90;;;;;;4922828;29;20506;-86
2023/06/26 00:42:58;;;;;;;19.20;14.20;;;17.30;99.90;;;;;;4908092;29;20432;-84
2023/06/26 00:45:25;;;;;;;13.70;12.30;;;17.10;99.90;;;;;;4917069;29;20522;-85
2023/06/26 00:48:14;;;;;;;17.10;15.03;;;17.20;99.90;;;;;;4924048;29;20477;-85
2023/06/26 00:50:43;;;;;;;17.13;15.47;;;17.40;99.90;;;;;;4936146;29;20424;-85
2023/06/26 00:53:13;;;;;;;17.33;15.03;;;17.20;99.90;;;;;;4927186;29;20804;-84
2023/06/26 00:55:42;;;;;;;19.80;16.30;;;17.60;99.90;;;;;;4926323;29;20500;-85
2023/06/26 00:58:09;;;;;;;17.00;14.90;;;17.20;99.90;;;;;;4927151;29;20472;-85
2023/06/26 01:00:38;;;;;;;21.40;17.37;;;17.50;99.90;;;;;;4926738;29;20465;-87
2023/06/26 01:03:12;;;;;;;19.33;17.40;;;17.20;99.90;;;;;;4923199;29;20894;-86
2023/06/26 01:05:51;;;;;;;17.80;15.60;;;17.00;99.90;;;;;;4913281;29;20448;-85
2023/06/26 01:08:22;;;;;;;18.30;16.17;;;17.00;99.90;;;;;;4910372;29;20413;-85
2023/06/26 01:10:49;;;;;;;19.57;15.90;;;17.30;99.90;;;;;;4914765;29;20764;-84
2023/06/26 01:13:39;;;;;;;17.23;15.53;;;17.10;99.90;;;;;;4909562;29;20606;-87
2023/06/26 01:16:19;;;;;;;21.10;16.57;;;16.90;99.90;;;;;;4921687;29;20473;-89
2023/06/26 01:18:48;;;;;;;23.23;15.70;;;16.70;99.90;;;;;;4909010;29;20682;-84
2023/06/26 01:21:18;;;;;;;19.93;15.33;;;16.60;99.90;;;;;;4925733;29;20988;-83
2023/06/26 01:24:04;;;;;;;20.73;15.83;;;16.50;99.90;;;;;;4918676;29;20441;-83
2023/06/26 01:26:36;;;;;;;17.70;15.80;;;16.70;99.90;;;;;;4925822;29;20643;-87
2023/06/26 01:29:12;;;;;;;16.63;14.90;;;16.80;99.90;;;;;;4926366;29;20698;-87
2023/06/26 01:31:42;;;;;;;21.23;16.10;;;16.90;99.90;;;;;;4926139;29;20435;-86
2023/06/26 01:34:12;;;;;;;15.70;14.10;;;16.80;99.90;;;;;;4927352;29;20447;-86
2023/06/26 01:36:48;;;;;;;17.30;15.43;;;16.70;99.90;;;;;;4934454;28;20461;-87
2023/06/26 01:39:19;;;;;;;20.10;16.30;;;16.80;99.90;;;;;;4911059;29;20518;-86
2023/06/26 01:41:51;;;;;;;15.80;14.20;;;16.70;99.90;;;;;;4925778;29;20432;-88
2023/06/26 01:44:35;;;;;;;15.73;14.10;;;16.80;99.90;;;;;;4920730;29;20460;-86
2023/06/26 01:47:10;;;;;;;17.97;16.00;;;16.80;99.90;;;;;;4927979;29;20481;-89
2023/06/26 01:50:09;;;;;;;17.67;15.80;;;16.80;99.90;;;;;;4913726;29;20431;-86
2023/06/26 01:52:49;;;;;;;15.90;14.30;;;16.60;99.90;;;;;;4925389;29;20529;-85
2023/06/26 01:55:39;;;;;;;19.13;15.80;;;16.70;99.90;;;;;;4927264;29;20429;-86
2023/06/26 01:58:06;;;;;;;18.00;15.97;;;16.60;99.90;;;;;;4931377;29;20747;-86
2023/06/26 02:00:38;;;;;;;17.13;15.50;;;16.50;99.90;;;;;;4924597;29;20567;-85
2023/06/26 02:03:06;;;;;;;19.40;15.30;;;16.70;99.90;;;;;;4909355;29;20429;-85
2023/06/26 02:05:34;;;;;;;17.20;13.50;;;16.60;99.90;;;;;;4904589;29;20455;-84
2023/06/26 02:08:08;;;;;;;19.10;15.00;;;16.20;99.90;;;;;;4909226;29;20448;-85
2023/06/26 02:10:35;;;;;;;18.53;16.20;;;16.50;99.90;;;;;;4904202;29;20485;-86
2023/06/26 02:13:07;;;;;;;18.50;16.50;;;16.60;99.90;;;;;;4926666;29;20793;-86
2023/06/26 02:15:49;;;;;;;20.03;16.63;;;16.90;99.90;;;;;;4933590;29;20457;-87
2023/06/26 02:18:22;;;;;;;17.97;16.10;;;16.50;99.90;;;;;;4911839;29;20459;-87
2023/06/26 02:20:49;;;;;;;22.27;16.10;;;16.40;99.90;;;;;;4908176;29;20465;-84
2023/06/26 02:23:16;;;;;;;19.23;17.17;;;16.60;99.90;;;;;;4924644;29;20454;-88
2023/06/26 02:26:04;;;;;;;18.20;16.30;;;16.40;99.90;;;;;;4928049;29;20422;-87
2023/06/26 02:28:34;;;;;;;21.83;16.93;;;16.40;99.90;;;;;;4920319;29;20549;-86
2023/06/26 02:31:20;;;;;;;21.23;17.73;;;16.40;99.90;;;;;;4915616;29;20434;-88
2023/06/26 02:33:50;;;;;;;19.90;17.87;;;16.20;99.90;;;;;;4911485;29;20499;-86
2023/06/26 02:36:27;;;;;;;20.47;17.80;;;16.60;99.90;;;;;;4919344;28;20420;-86
2023/06/26 02:38:57;;;;;;;18.33;16.00;;;16.50;99.90;;;;;;4923925;28;20450;-87
2023/06/26 02:41:35;;;;;;;18.73;17.03;;;16.50;99.90;;;;;;4937395;28;20501;-86
2023/06/26 02:44:15;;;;;;;21.27;16.93;;;16.50;99.90;;;;;;4933621;29;20414;-86
2023/06/26 02:47:04;;;;;;;18.47;16.70;;;16.50;99.90;;;;;;4905500;29;20806;-85
2023/06/26 02:49:31;;;;;;;19.17;16.27;;;16.70;99.90;;;;;;4907900;29;20505;-84
2023/06/26 02:52:05;;;;;;;18.03;14.93;;;16.60;99.90;;;;;;4929802;29;20425;-83
2023/06/26 03:10:31;;;;;;;;;;;;;;;;;;;;;
2023/06/26 03:13:05;;;;;;;14.80;12.50;;;17.00;99.90;;;;;;6200030;23;20352;-85
2023/06/26 03:15:37;;;;;;;15.80;13.27;;;16.90;99.90;;;;;;6172392;23;20528;-86
2023/06/26 03:18:13;;;;;;;15.10;13.60;;;17.00;99.90;;;;;;6202123;23;20372;-85
2023/06/26 03:20:46;;;;;;;16.30;13.70;;;17.10;99.90;;;;;;6214103;23;20352;-87
2023/06/26 03:23:15;;;;;;;13.60;12.20;;;17.30;99.90;;;;;;6188069;23;20488;-85
2023/06/26 03:25:42;;;;;;;14.03;12.73;;;17.20;99.90;;;;;;6212953;23;20379;-85
2023/06/26 03:28:14;;;;;;;18.03;10.90;;;18.00;99.90;;;;;;6215620;23;20406;-84
2023/06/26 03:30:43;;;;;;;14.77;10.63;;;18.80;99.90;;;;;;6187128;23;20400;-87
2023/06/26 03:33:13;;;;;;;13.93;10.40;;;19.30;99.90;;;;;;6176103;23;20421;-89
2023/06/26 03:35:43;;;;;;;10.40;9.40;;;19.90;99.90;;;;;;6173650;23;20456;-86
2023/06/26 03:38:56;;;;;;;15.17;9.27;;;20.30;99.90;;;;;;6198583;23;20425;-86
2023/06/26 03:41:46;;;;;;;25.07;11.10;;;20.40;99.90;;;;;;6197692;23;20364;-86
2023/06/26 03:44:34;;;;;;;14.60;9.97;;;20.30;99.90;;;;;;6199450;23;20417;-86
2023/06/26 03:47:10;;;;;;;12.80;10.07;;;20.20;99.90;;;;;;6162462;23;20404;-87
2023/06/26 03:49:45;;;;;;;19.07;9.40;;;20.20;99.90;;;;;;6191238;23;20416;-86
2023/06/26 03:52:16;;;;;;;10.40;9.50;;;20.20;99.90;;;;;;6151717;23;20453;-85
2023/06/26 03:54:45;;;;;;;12.03;10.93;;;20.20;99.90;;;;;;6173313;23;20456;-85
2023/06/26 03:57:21;;;;;;;13.13;10.37;;;20.00;99.90;;;;;;6173042;23;20463;-85
2023/06/26 03:59:54;;;;;;;15.00;10.97;;;20.10;99.90;;;;;;6197964;23;20388;-86
2023/06/26 04:02:25;;;;;;;12.03;10.80;;;20.00;99.90;;;;;;6176962;23;20373;-84
2023/06/26 04:04:56;;;;;;;20.03;10.60;;;19.90;99.90;;;;;;6174965;23;20395;-88
2023/06/26 04:07:34;;;;;;;10.73;9.70;;;19.90;99.90;;;;;;6172343;23;20385;-89
2023/06/26 04:10:19;;;;;;;;;;;;;;;;;;;;;
2023/06/26 04:13:03;;;;;;;11.83;9.93;;;20.30;99.90;;;;;;6195003;23;20682;-86
2023/06/26 04:15:50;;;;;;;10.20;8.93;;;20.70;99.90;;;;;;6173041;23;20442;-89
2023/06/26 04:18:29;;;;;;;15.83;9.20;;;21.30;99.90;;;;;;6173952;23;20382;-88
2023/06/26 04:21:31;;;;;;;10.50;9.50;;;21.10;99.90;;;;;;6196405;23;20384;-88
2023/06/26 04:24:22;;;;;;;13.43;9.83;;;20.80;99.90;;;;;;6176731;23;20382;-88
2023/06/26 05:07:25;;;;;;;9.70;8.70;;;20.90;99.90;;;;;;6183591;23;20431;-89
2023/06/26 05:10:04;;;;;;;12.27;9.37;;;21.00;99.90;;;;;;6197483;23;20360;-89
2023/06/26 05:37:56;;;;;;;10.90;9.67;;;22.20;99.90;;;;;;6130632;22;20659;-90
2023/06/26 05:43:12;;;;;;;10.03;8.63;;;22.30;99.90;;;;;;6162386;23;20465;-88
2023/06/26 05:48:37;;;;;;;11.97;8.93;;;22.50;99.90;;;;;;6195948;23;20448;-87
2023/06/26 05:51:22;;;;;;;;;;;;;;;;;;;;;
2023/06/26 05:54:37;;;;;;;;;;;;;;;;;;;;;
2023/06/26 05:57:29;;;;;;;10.80;9.80;;;23.10;99.90;;;;;;6222089;23;20445;-84
2023/06/26 06:03:44;;;;;;;;;;;;;;;;;;;;;
2023/06/26 06:06:40;;;;;;;9.37;8.20;;;23.50;99.90;;;;;;6134288;23;20892;-89
2023/06/26 06:09:16;;;;;;;9.30;8.40;;;23.40;99.90;;;;;;6108898;23;20596;-88
2023/06/26 06:11:48;;;;;;;8.93;7.93;;;23.60;99.90;;;;;;6134448;23;20402;-87
2023/06/26 06:14:22;;;;;;;9.50;8.33;;;23.50;99.90;;;;;;6192227;23;20399;-89
2023/06/26 06:16:55;;;;;;;9.33;8.20;;;23.30;99.90;;;;;;6199987;23;20396;-89
2023/06/26 06:19:46;;;;;;;9.83;7.87;;;23.40;99.90;;;;;;6220886;23;20422;-87
2023/06/26 06:22:17;;;;;;;10.27;9.07;;;23.40;99.90;;;;;;6196282;23;20809;-86
2023/06/26 06:24:49;;;;;;;8.60;7.90;;;23.80;99.90;;;;;;6195660;23;20680;-85
2023/06/26 06:27:18;;;;;;;10.00;8.73;;;24.30;99.90;;;;;;6219490;23;20375;-86
2023/06/26 06:29:45;;;;;;;13.60;9.47;;;24.40;99.90;;;;;;6224281;23;20452;-84
2023/06/26 06:32:17;;;;;;;8.60;7.93;;;24.90;99.90;;;;;;6221678;23;20373;-84
2023/06/26 06:34:57;;;;;;;11.00;8.47;;;25.00;99.90;;;;;;6221121;23;20450;-84
2023/06/26 06:37:24;;;;;;;8.53;7.80;;;25.00;99.90;;;;;;6223792;23;20440;-88
2023/06/26 06:39:52;;;;;;;8.37;7.67;;;25.00;99.90;;;;;;6222560;23;20397;-86
2023/06/26 06:42:24;;;;;;;8.97;8.00;;;25.00;99.90;;;;;;6225791;23;20392;-88
2023/06/26 06:44:51;;;;;;;9.37;7.50;;;25.50;99.90;;;;;;6219079;23;20507;-84
2023/06/26 06:47:21;;;;;;;8.87;7.97;;;25.50;99.90;;;;;;6217978;23;20435;-86
2023/06/26 06:49:48;;;;;;;8.93;8.07;;;26.00;99.90;;;;;;6221965;23;20376;-82
2023/06/26 06:52:15;;;;;;;13.57;7.87;;;26.30;99.90;;;;;;6234077;23;20488;-87
2023/06/26 06:54:58;;;;;;;8.47;7.67;;;26.20;99.90;;;;;;6220340;23;20489;-84
2023/06/26 06:57:37;;;;;;;9.50;8.10;;;26.20;99.90;;;;;;6228749;23;21045;-84
2023/06/26 07:00:11;;;;;;;8.63;7.83;;;26.60;99.90;;;;;;6232718;23;20374;-84
2023/06/26 07:02:40;;;;;;;8.13;7.43;;;27.70;99.90;;;;;;6236522;23;20389;-84
2023/06/26 07:05:09;;;;;;;10.27;8.60;;;28.70;99.90;;;;;;6238952;23;20373;-83
2023/06/26 07:07:37;;;;;;;13.77;7.30;;;29.90;99.90;;;;;;6236222;23;20421;-84
2023/06/26 07:10:13;;;;;;;7.23;6.63;;;31.60;99.90;;;;;;6236501;23;20472;-85
2023/06/26 07:12:44;;;;;;;6.93;6.33;;;33.20;99.90;;;;;;6234064;23;20381;-85
2023/06/26 07:15:12;;;;;;;8.10;7.37;;;34.00;98.70;;;;;;6234547;23;20386;-84
2023/06/26 07:17:42;;;;;;;8.70;7.53;;;34.70;96.20;;;;;;6220716;23;20606;-84
2023/06/26 07:20:15;;;;;;;7.73;6.80;;;36.20;91.60;;;;;;6218209;23;20710;-88
2023/06/26 07:22:45;;;;;;;6.97;6.47;;;36.00;89.70;;;;;;6215990;23;20479;-83
2023/06/26 07:25:13;;;;;;;7.73;7.17;;;36.80;81.80;;;;;;6215261;23;20417;-88
2023/06/26 07:27:41;;;;;;;7.80;7.00;;;35.30;84.10;;;;;;6216809;23;20690;-84
2023/06/26 07:30:10;;;;;;;7.30;6.50;;;35.70;83.40;;;;;;6219279;23;20461;-88
2023/06/26 07:32:42;;;;;;;7.40;6.80;;;35.60;83.50;;;;;;6217764;23;20398;-84
2023/06/26 07:35:13;;;;;;;7.63;7.13;;;36.00;77.80;;;;;;6217634;23;20398;-83
2023/06/26 07:37:41;;;;;;;7.40;6.80;;;37.00;77.50;;;;;;6217840;23;20405;-85
2023/06/26 07:40:11;;;;;;;8.47;7.77;;;38.60;71.80;;;;;;6218474;23;20396;-84
2023/06/26 07:42:40;;;;;;;6.73;6.20;;;40.50;65.50;;;;;;6218671;23;20496;-87
2023/06/26 07:45:11;;;;;;;7.53;6.83;;;40.40;61.40;;;;;;6220580;23;20401;-85
2023/06/26 07:47:39;;;;;;;7.87;6.90;;;41.60;58.30;;;;;;6219032;23;20733;-84
2023/06/26 07:50:19;;;;;;;6.70;6.20;;;42.60;55.00;;;;;;6219452;23;20928;-87
2023/06/26 07:52:51;;;;;;;8.17;7.37;;;43.50;53.00;;;;;;6220909;23;20374;-86
2023/06/26 07:55:19;;;;;;;7.63;7.03;;;43.30;50.80;;;;;;6222343;23;20417;-83
2023/06/26 07:57:46;;;;;;;7.17;6.40;;;43.80;49.40;;;;;;6219617;23;20433;-83
2023/06/26 08:00:13;;;;;;;7.33;6.80;;;43.50;49.30;;;;;;6219932;23;20487;-85
2023/06/26 08:02:40;;;;;;;7.40;6.80;;;42.90;48.90;;;;;;6222899;23;20756;-86
2023/06/26 08:05:09;;;;;;;6.53;6.07;;;41.90;50.00;;;;;;6217833;23;20397;-85
2023/06/26 08:07:36;;;;;;;7.43;6.93;;;40.60;51.20;;;;;;6221077;23;20807;-88
2023/06/26 08:10:06;;;;;;;7.87;6.27;;;41.00;50.70;;;;;;6228457;23;20476;-84
2023/06/26 08:12:33;;;;;;;7.93;7.33;;;42.10;49.90;;;;;;6221639;23;20390;-84
2023/06/26 08:15:02;;;;;;;7.43;6.90;;;44.00;47.60;;;;;;6221998;23;20638;-86
2023/06/26 08:17:29;;;;;;;6.77;6.33;;;44.50;46.70;;;;;;6221294;23;20579;-83
2023/06/26 08:19:57;;;;;;;7.23;6.50;;;45.30;43.90;;;;;;6220795;23;20398;-82
2023/06/26 08:22:24;;;;;;;6.77;6.40;;;46.50;41.00;;;;;;6221887;23;20489;-80
2023/06/26 08:24:51;;;;;;;8.00;7.40;;;45.10;41.50;;;;;;6220054;23;20599;-83
2023/06/26 08:27:22;;;;;;;7.57;7.07;;;44.60;42.90;;;;;;6218393;23;20421;-88
2023/06/26 08:29:55;;;;;;;7.43;6.83;;;45.80;41.70;;;;;;6220539;23;20610;-87
2023/06/26 08:32:23;;;;;;;7.30;6.80;;;44.60;40.40;;;;;;6224590;23;20386;-86
2023/06/26 08:34:51;;;;;;;7.23;6.53;;;44.00;41.40;;;;;;6223250;23;20775;-83
2023/06/26 08:37:18;;;;;;;6.90;6.50;;;44.50;40.30;;;;;;6221012;23;20436;-86
2023/06/26 08:39:58;;;;;;;6.90;6.50;;;43.10;41.00;;;;;;6222086;23;20417;-86
2023/06/26 08:42:34;;;;;;;7.10;6.60;;;41.70;42.10;;;;;;6223460;23;20417;-84
2023/06/26 08:45:02;;;;;;;7.07;6.67;;;42.50;42.50;;;;;;6219007;23;20402;-84
2023/06/26 08:47:34;;;;;;;6.90;6.40;;;43.80;41.20;;;;;;6223091;23;20460;-82
2023/06/26 08:50:10;;;;;;;6.40;6.00;;;44.40;41.40;;;;;;6219716;23;20710;-82
2023/06/26 08:52:52;;;;;;;8.27;6.83;;;42.80;42.50;;;;;;6193691;23;20377;-86
2023/06/26 08:55:21;;;;;;;6.80;6.30;;;42.60;42.40;;;;;;6221815;23;20760;-82
2023/06/26 08:57:53;;;;;;;6.93;6.53;;;43.10;42.40;;;;;;6218036;23;20432;-86
2023/06/26 09:00:21;;;;;;;6.53;6.17;;;42.60;42.00;;;;;;6219509;23;20730;-82
2023/06/26 09:02:50;;;;;;;7.30;6.90;;;43.00;41.00;;;;;;6218140;23;20401;-87
2023/06/26 09:05:19;;;;;;;6.80;6.40;;;41.60;41.60;;;;;;6223401;23;20393;-81
2023/06/26 09:07:51;;;;;;;6.70;6.30;;;39.70;43.90;;;;;;6219376;23;20422;-83
2023/06/26 09:10:19;;;;;;;6.97;6.27;;;38.40;45.00;;;;;;6221553;23;20799;-84
2023/06/26 09:12:47;;;;;;;7.13;6.37;;;37.10;48.00;;;;;;6195792;23;20406;-84
2023/06/26 09:15:15;;;;;;;6.40;5.97;;;36.80;47.40;;;;;;6220623;23;20801;-84
2023/06/26 09:17:42;;;;;;;6.83;6.33;;;37.00;47.10;;;;;;6222112;23;20484;-85
2023/06/26 09:20:13;;;;;;;6.67;6.07;;;36.00;49.10;;;;;;6221215;23;20393;-88
2023/06/26 09:22:47;;;;;;;7.80;7.00;;;34.70;51.80;;;;;;6220794;23;20438;-83
2023/06/26 09:25:14;;;;;;;6.80;6.30;;;33.60;54.10;;;;;;6220019;23;20420;-84
2023/06/26 09:27:43;;;;;;;7.30;6.80;;;32.90;56.00;;;;;;6222733;23;20447;-85
2023/06/26 09:30:18;;;;;;;6.93;6.33;;;33.30;55.50;;;;;;6220890;23;20467;-85
2023/06/26 09:32:47;;;;;;;6.70;6.20;;;35.30;53.50;;;;;;6219193;23;20694;-82
2023/06/26 09:35:15;;;;;;;7.13;6.53;;;36.90;52.60;;;;;;6218854;23;20712;-80
2023/06/26 09:37:43;;;;;;;6.70;6.20;;;37.30;49.20;;;;;;6219777;23;20406;-82
2023/06/26 09:40:13;;;;;;;8.03;7.33;;;36.50;51.80;;;;;;6217749;23;20767;-81
2023/06/26 09:42:44;;;;;;;6.00;5.63;;;35.50;53.80;;;;;;6219867;23;20370;-82
2023/06/26 09:45:19;;;;;;;9.13;6.70;;;34.80;55.40;;;;;;6221166;23;20404;-86
2023/06/26 09:47:46;;;;;;;7.60;7.10;;;33.70;56.10;;;;;;6219336;23;20441;-87
2023/06/26 09:50:48;;;;;;;8.13;7.43;;;32.30;59.20;;;;;;6220243;23;20413;-84
2023/06/26 09:53:36;;;;;;;7.60;7.00;;;31.40;62.20;;;;;;6228635;23;20657;-83
2023/06/26 09:56:38;;;;;;;8.70;7.87;;;31.00;66.70;;;;;;6231706;23;20441;-83
2023/06/26 09:59:06;;;;;;;8.23;7.40;;;31.00;71.30;;;;;;6217846;23;20409;-80
2023/06/26 10:01:40;;;;;;;7.53;6.90;;;31.30;71.10;;;;;;6217030;23;20397;-80
2023/06/26 10:04:07;;;;;;;7.60;7.10;;;31.80;70.20;;;;;;6217581;23;20380;-80
2023/06/26 10:06:49;;;;;;;7.93;7.30;;;31.90;70.50;;;;;;6218235;23;20757;-84
2023/06/26 10:09:20;;;;;;;6.27;5.87;;;31.70;71.00;;;;;;6221455;23;20370;-84
2023/06/26 10:12:14;;;;;;;9.83;6.63;;;31.50;70.60;;;;;;6235287;23;20405;-79
2023/06/26 10:14:42;;;;;;;7.87;7.07;;;31.50;71.80;;;;;;6232383;23;20400;-82
2023/06/26 10:17:19;;;;;;;7.17;6.43;;;31.60;74.50;;;;;;6220297;23;20409;-84
2023/06/26 10:19:47;;;;;;;7.40;6.90;;;31.70;72.60;;;;;;6220389;23;20382;-84
2023/06/26 10:22:20;;;;;;;6.43;5.93;;;31.80;72.10;;;;;;6220672;23;20768;-82
2023/06/26 10:24:49;;;;;;;8.13;7.17;;;31.80;72.10;;;;;;6219690;23;20429;-83
2023/06/26 10:27:20;;;;;;;7.93;7.03;;;31.80;73.00;;;;;;6220040;23;20685;-88
2023/06/26 10:29:52;;;;;;;7.67;6.90;;;31.60;70.20;;;;;;6221581;23;20397;-86
2023/06/26 10:32:23;;;;;;;7.30;6.50;;;31.00;73.70;;;;;;6229636;23;20452;-83
2023/06/26 10:34:51;;;;;;;6.70;6.20;;;30.60;74.20;;;;;;6224471;23;20400;-81
2023/06/26 10:37:18;;;;;;;7.90;7.20;;;30.70;80.30;;;;;;6219801;23;20653;-80
2023/06/26 10:39:50;;;;;;;7.57;6.83;;;30.80;76.90;;;;;;6221448;23;20421;-80
2023/06/26 10:42:18;;;;;;;7.23;6.73;;;30.70;77.50;;;;;;6219356;23;20712;-84
2023/06/26 10:44:47;;;;;;;7.90;7.10;;;30.80;78.50;;;;;;6222069;23;20397;-83
2023/06/26 10:47:33;;;;;;;7.37;6.87;;;30.80;76.10;;;;;;6224959;23;20793;-84
2023/06/26 10:50:18;;;;;;;6.60;6.20;;;30.90;77.20;;;;;;6224721;23;20403;-83
2023/06/26 10:53:18;;;;;;;7.17;6.57;;;31.20;77.70;;;;;;6227852;23;20378;-80
2023/06/26 10:55:51;;;;;;;7.33;6.73;;;31.50;77.30;;;;;;6229475;23;20766;-80
2023/06/26 10:58:31;;;;;;;7.10;6.60;;;31.70;75.20;;;;;;6219696;23;20344;-81
2023/06/26 11:01:18;;;;;;;6.77;6.27;;;32.00;75.10;;;;;;6218458;23;20374;-79
2023/06/26 11:03:49;;;;;;;7.27;6.57;;;31.70;72.30;;;;;;6218494;23;20682;-84
2023/06/26 11:06:19;;;;;;;7.33;6.77;;;31.50;75.20;;;;;;6218074;23;20430;-83
2023/06/26 11:08:49;;;;;;;7.97;7.00;;;31.40;75.20;;;;;;6217546;23;20449;-83
2023/06/26 11:11:17;;;;;;;5.80;5.50;;;31.40;75.40;;;;;;6217655;23;20385;-83
2023/06/26 11:13:46;;;;;;;6.13;5.77;;;31.30;73.50;;;;;;6218192;23;20435;-81
2023/06/26 11:16:14;;;;;;;7.10;6.60;;;31.20;71.90;;;;;;6219969;23;20469;-85
2023/06/26 11:18:45;;;;;;;6.80;6.30;;;31.00;74.30;;;;;;6220382;23;20476;-82
2023/06/26 11:21:15;;;;;;;7.30;6.70;;;30.70;74.80;;;;;;6222314;23;20397;-84
2023/06/26 11:23:45;;;;;;;6.70;6.20;;;30.20;75.50;;;;;;6223315;23;20425;-79
2023/06/26 11:26:22;;;;;;;5.90;5.57;;;30.20;78.40;;;;;;6223066;23;20386;-80
2023/06/26 11:28:51;;;;;;;6.33;5.80;;;30.30;81.60;;;;;;6222895;23;20421;-80
2023/06/26 11:31:30;;;;;;;6.90;6.40;;;30.40;79.80;;;;;;6223140;23;20396;-81
2023/06/26 11:34:04;;;;;;;6.13;5.73;;;30.50;78.50;;;;;;6216997;23;20382;-79
2023/06/26 11:36:31;;;;;;;9.90;8.03;;;30.40;79.40;;;;;;6221335;23;20377;-82
2023/06/26 11:39:03;;;;;;;7.20;6.60;;;30.40;80.40;;;;;;6219952;23;20396;-87
2023/06/26 11:41:33;;;;;;;6.93;6.30;;;30.50;82.30;;;;;;6219376;23;20409;-82
2023/06/26 11:44:06;;;;;;;6.33;5.80;;;30.60;82.50;;;;;;6220042;23;20481;-82
2023/06/26 11:46:37;;;;;;;6.13;5.60;;;30.70;83.90;;;;;;6221258;23;20369;-87
2023/06/26 11:49:08;;;;;;;6.13;5.63;;;31.00;81.90;;;;;;6216980;23;20762;-79
2023/06/26 11:51:36;;;;;;;5.93;5.53;;;31.20;79.00;;;;;;6219937;23;20408;-79
2023/06/26 11:54:04;;;;;;;6.70;6.10;;;31.20;76.10;;;;;;6219227;23;20397;-83
2023/06/26 11:56:31;;;;;;;6.57;5.97;;;30.90;75.30;;;;;;6219935;23;20395;-83
2023/06/26 11:59:06;;;;;;;7.13;6.43;;;30.60;75.30;;;;;;6218081;23;20404;-82
2023/06/26 12:01:42;;;;;;;7.23;6.63;;;30.30;77.10;;;;;;6218640;23;20411;-80
2023/06/26 12:04:17;;;;;;;7.17;6.40;;;30.00;82.10;;;;;;6219459;23;20377;-80
2023/06/26 12:06:49;;;;;;;6.80;6.20;;;30.10;82.60;;;;;;6217798;23;20440;-82
2023/06/26 12:09:19;;;;;;;6.87;6.00;;;30.20;82.70;;;;;;6219789;23;20421;-81
2023/06/26 12:11:48;;;;;;;6.00;5.63;;;29.80;80.30;;;;;;6220016;23;20433;-83
2023/06/26 12:14:18;;;;;;;6.60;6.10;;;29.30;82.40;;;;;;6218634;23;20412;-82
2023/06/26 12:16:45;;;;;;;6.57;6.07;;;29.20;86.40;;;;;;6219447;23;20420;-82
2023/06/26 12:19:12;;;;;;;6.47;5.97;;;29.40;85.20;;;;;;6219247;23;20779;-82
2023/06/26 12:21:45;;;;;;;6.60;5.97;;;29.80;88.00;;;;;;6220768;23;20408;-81
2023/06/26 12:24:18;;;;;;;6.50;6.00;;;30.20;85.20;;;;;;6222270;23;20384;-86
2023/06/26 12:26:47;;;;;;;6.77;6.17;;;30.30;84.00;;;;;;6219927;23;20397;-80
2023/06/26 12:29:18;;;;;;;10.60;6.03;;;30.60;82.90;;;;;;6225246;23;20465;-81
2023/06/26 12:31:53;;;;;;;7.27;6.60;;;30.30;82.70;;;;;;6218245;23;20641;-80
2023/06/26 12:34:34;;;;;;;6.03;5.63;;;30.40;80.70;;;;;;6218335;23;20523;-82
2023/06/26 12:37:04;;;;;;;7.03;6.63;;;30.50;81.80;;;;;;6222973;23;20372;-81
2023/06/26 12:39:49;;;;;;;7.30;5.90;;;30.40;81.50;;;;;;6220463;23;20671;-85
2023/06/26 12:42:18;;;;;;;6.07;5.70;;;30.50;82.90;;;;;;6221034;23;20456;-84
2023/06/26 12:44:47;;;;;;;6.63;6.00;;;30.50;82.20;;;;;;6218814;23;20410;-81
2023/06/26 12:47:24;;;;;;;6.43;6.03;;;30.40;82.70;;;;;;6219346;23;20475;-81
2023/06/26 12:49:51;;;;;;;5.80;5.40;;;30.50;83.60;;;;;;6219408;23;20668;-78
2023/06/26 12:52:19;;;;;;;6.10;5.70;;;30.50;83.10;;;;;;6219787;23;20432;-81
2023/06/26 12:54:50;;;;;;;6.53;6.00;;;30.50;82.20;;;;;;6218836;23;20512;-82
2023/06/26 12:57:18;;;;;;;5.97;5.57;;;30.40;82.30;;;;;;6219552;23;20368;-80
2023/06/26 12:59:45;;;;;;;5.33;5.03;;;30.40;84.40;;;;;;6217719;23;20397;-84
2023/06/26 13:02:12;;;;;;;6.80;6.30;;;30.30;83.40;;;;;;6218412;23;20413;-80
2023/06/26 13:04:39;;;;;;;5.43;5.03;;;30.20;85.00;;;;;;6220607;23;20389;-81
2023/06/26 13:07:07;;;;;;;5.60;5.20;;;30.20;84.80;;;;;;6219669;23;20411;-82
2023/06/26 13:09:36;;;;;;;6.30;5.90;;;30.20;85.20;;;;;;6219474;23;20451;-82
2023/06/26 13:12:05;;;;;;;6.63;5.90;;;30.30;82.60;;;;;;6218651;23;20412;-78
2023/06/26 13:14:33;;;;;;;6.00;5.40;;;30.00;82.00;;;;;;6221639;23;20397;-79
2023/06/26 13:17:01;;;;;;;7.33;6.70;;;30.00;83.60;;;;;;6221591;23;20398;-81
2023/06/26 13:19:28;;;;;;;5.07;4.77;;;30.20;85.70;;;;;;6220639;23;20371;-81
2023/06/26 13:21:55;;;;;;;6.90;6.30;;;30.40;82.30;;;;;;6232917;23;20770;-81
2023/06/26 13:24:22;;;;;;;5.30;5.00;;;30.40;82.30;;;;;;6228563;23;20402;-84
2023/06/26 13:26:49;;;;;;;6.37;5.87;;;30.40;85.20;;;;;;6218671;23;20688;-80
2023/06/26 13:29:16;;;;;;;6.50;6.00;;;30.30;85.30;;;;;;6220073;23;20595;-83
2023/06/26 13:31:43;;;;;;;6.43;5.93;;;30.30;85.10;;;;;;6219806;23;20393;-88
2023/06/26 13:34:23;;;;;;;6.87;6.33;;;30.30;87.40;;;;;;6219324;23;20421;-82
2023/06/26 13:36:50;;;;;;;6.20;5.60;;;30.40;87.80;;;;;;6219941;23;20441;-80
2023/06/26 13:39:17;;;;;;;6.87;5.00;;;30.30;88.20;;;;;;6217152;23;20376;-82
2023/06/26 13:41:45;;;;;;;6.17;5.67;;;30.30;86.00;;;;;;6216993;23;20380;-84
2023/06/26 13:44:13;;;;;;;5.47;4.97;;;30.30;85.70;;;;;;6222511;23;20372;-84
2023/06/26 13:46:51;;;;;;;5.90;5.40;;;30.30;85.30;;;;;;6222269;23;20506;-83
2023/06/26 13:49:18;;;;;;;5.80;5.40;;;30.40;85.40;;;;;;6221456;23;20475;-80
2023/06/26 13:51:46;;;;;;;6.70;6.10;;;30.50;86.10;;;;;;6221329;23;20425;-83
2023/06/26 13:54:13;;;;;;;6.03;5.53;;;30.60;88.70;;;;;;6222591;23;20400;-81
2023/06/26 13:56:45;;;;;;;6.80;5.50;;;30.60;86.50;;;;;;6224469;23;20352;-86
2023/06/26 13:59:14;;;;;;;9.83;5.63;;;30.50;88.20;;;;;;6221961;23;20464;-84
2023/06/26 14:01:45;;;;;;;5.13;4.83;;;30.40;89.60;;;;;;6225854;23;20364;-83
2023/06/26 14:04:13;;;;;;;6.00;5.60;;;30.50;88.90;;;;;;6220688;23;20433;-79
2023/06/26 14:06:41;;;;;;;6.10;5.60;;;30.60;88.20;;;;;;6221001;23;20401;-79
2023/06/26 14:09:08;;;;;;;5.70;5.17;;;30.30;87.00;;;;;;6216970;23;20505;-79
2023/06/26 14:11:35;;;;;;;6.47;5.90;;;30.20;87.00;;;;;;6219117;23;20480;-81
2023/06/26 14:14:03;;;;;;;7.10;6.50;;;30.20;88.20;;;;;;6220902;23;20435;-82
2023/06/26 14:16:30;;;;;;;5.87;5.47;;;30.20;88.80;;;;;;6221279;23;20708;-82
2023/06/26 14:18:57;;;;;;;6.43;5.93;;;30.20;90.40;;;;;;6220498;23;20376;-85
2023/06/26 14:21:27;;;;;;;5.90;5.50;;;30.30;90.30;;;;;;6220557;23;20424;-85
2023/06/26 14:23:57;;;;;;;6.73;6.27;;;30.20;87.90;;;;;;6221872;23;20365;-81
2023/06/26 14:26:24;;;;;;;6.10;5.70;;;30.20;89.40;;;;;;6233879;23;20827;-81
2023/06/26 14:28:51;;;;;;;6.00;5.60;;;30.20;89.50;;;;;;6230142;23;20437;-81
2023/06/26 14:31:18;;;;;;;5.70;5.30;;;30.10;87.50;;;;;;6218792;23;20574;-82
2023/06/26 14:37:04;;;;;;;6.27;5.83;;;30.10;90.00;;;;;;5075396;28;20626;-80
2023/06/26 14:39:31;;;;;;;6.53;6.03;;;30.20;90.70;;;;;;5078108;28;20822;-86
2023/06/26 14:41:59;;;;;;;6.00;5.60;;;30.20;90.90;;;;;;5065989;28;20444;-84
2023/06/26 14:44:26;;;;;;;6.30;5.80;;;30.10;91.90;;;;;;5082308;28;20475;-82
2023/06/26 14:46:56;;;;;;;6.17;5.67;;;30.20;92.00;;;;;;5082039;28;20442;-81
2023/06/26 14:49:23;;;;;;;6.30;5.90;;;30.30;91.20;;;;;;5076705;28;20721;-81